This is the latest recevied weather packets stored in our database for station/object KG5VSR. If no packets are shown the sender has not sent any weather packets the latest 10 day(s).
| Time | Temp. | Humidity | Pressure | Rain* | Wind** | Luminosity | Snow |
|---|---|---|---|---|---|---|---|
| 1777613849 | 16.11° C | 83% | 1017.3 hPa | 0 mm | - | 0 W/m² | - |
| 1777612044 | 16.11° C | 84% | 1017.3 hPa | 0 mm | - | 0 W/m² | - |
| 1777610242 | 16.11° C | 84% | 1016.9 hPa | 0 mm | - | 0 W/m² | - |
| 1777608442 | 16.11° C | 83% | 1016.6 hPa | 0 mm | - | 0 W/m² | - |
| 1777606638 | 16.11° C | 81% | 1016.3 hPa | 0 mm | - | 0 W/m² | - |
| 1777604833 | 16.67° C | 80% | 1015.8 hPa | 0 mm | - | 0 W/m² | - |
| 1777603028 | 16.67° C | 81% | 1015.4 hPa | 0 mm | - | 0 W/m² | - |
| 1777601224 | 16.67° C | 84% | 1015.4 hPa | 0 mm | - | 0 W/m² | - |
| 1777599420 | 16.67° C | 82% | 1015.2 hPa | 0 mm | - | 0 W/m² | - |
| 1777597614 | 16.67° C | 83% | 1015.2 hPa | 0 mm | - | 0 W/m² | - |
| 1777595810 | 16.67° C | 82% | 1014.9 hPa | 0 mm | - | 2 W/m² | - |
| 1777594005 | 16.67° C | 81% | 1014.2 hPa | 0 mm | - | 17 W/m² | - |
| 1777592204 | 16.67° C | 81% | 1013.6 hPa | 0 mm | - | 39 W/m² | - |
| 1777590404 | 17.22° C | 82% | 1013.6 hPa | 0 mm | - | 63 W/m² | - |
| 1777588602 | 16.67° C | 83% | 1013.7 hPa | 0 mm | - | 49 W/m² | - |
| 1777586799 | 17.22° C | 84% | 1014.2 hPa | 0 mm | - | 77 W/m² | - |
| 1777584996 | 17.22° C | 83% | 1014.7 hPa | 0 mm | - | 44 W/m² | - |
| 1777583193 | 17.22° C | 83% | 1013.9 hPa | 0 mm | - | 101 W/m² | - |
| 1777581392 | 16.67° C | 83% | 1014 hPa | 0 mm | - | 90 W/m² | - |
| 1777579591 | 16.67° C | 86% | 1015 hPa | 0 mm | - | 85 W/m² | - |
| 1777577792 | 16.11° C | 89% | 1014.6 hPa | 0 mm | - | 34 W/m² | - |
| 1777575991 | 16.11° C | 92% | 1012.4 hPa | 0 mm | - | 242 W/m² | - |
| 1777574186 | 16.11° C | 97% | 1013.8 hPa | 0 mm | - | 115 W/m² | - |
| 1777572382 | 15.56° C | 99% | 1013.2 hPa | 0 mm | - | 158 W/m² | - |
| 1777570581 | 16.11° C | 99% | 1014.7 hPa | 1.27 mm | - | 74 W/m² | - |
* Rain latest hour (hover to see other rain measurements)
** Current wind speed in m/s (hover to see current wind gust speed)